sensor_id;sensor_type;location;lat;lon;timestamp;pressure;altitude;pressure_sealevel;temperature;humidity
41573;BME280;27286;47.870;19.006;2022-12-10T00:01:08;97696.84;;;4.39;99.95
41573;BME280;27286;47.870;19.006;2022-12-10T00:03:35;97703.47;;;4.44;100.00
41573;BME280;27286;47.870;19.006;2022-12-10T00:06:02;97702.59;;;4.25;100.00
41573;BME280;27286;47.870;19.006;2022-12-10T00:08:28;97708.97;;;4.16;100.00
41573;BME280;27286;47.870;19.006;2022-12-10T00:10:53;97710.22;;;4.08;100.00
41573;BME280;27286;47.870;19.006;2022-12-10T00:13:19;97705.25;;;4.23;100.00
41573;BME280;27286;47.870;19.006;2022-12-10T00:15:44;97696.63;;;4.25;100.00
41573;BME280;27286;47.870;19.006;2022-12-10T00:18:09;97713.88;;;4.22;100.00
41573;BME280;27286;47.870;19.006;2022-12-10T00:20:36;97711.00;;;4.10;100.00
41573;BME280;27286;47.870;19.006;2022-12-10T00:23:02;97710.56;;;4.19;100.00
41573;BME280;27286;47.870;19.006;2022-12-10T00:25:28;97707.13;;;4.20;100.00
41573;BME280;27286;47.870;19.006;2022-12-10T00:27:53;97712.63;;;4.31;100.00
41573;BME280;27286;47.870;19.006;2022-12-10T00:30:19;97724.34;;;4.18;100.00
41573;BME280;27286;47.870;19.006;2022-12-10T00:32:44;97720.84;;;4.20;100.00
41573;BME280;27286;47.870;19.006;2022-12-10T00:35:10;97723.72;;;4.13;100.00
41573;BME280;27286;47.870;19.006;2022-12-10T00:37:35;97726.50;;;4.08;100.00
41573;BME280;27286;47.870;19.006;2022-12-10T00:40:00;97724.91;;;4.06;100.00
41573;BME280;27286;47.870;19.006;2022-12-10T00:42:26;97719.28;;;4.16;100.00
41573;BME280;27286;47.870;19.006;2022-12-10T00:44:51;97729.72;;;4.13;100.00
41573;BME280;27286;47.870;19.006;2022-12-10T00:47:17;97725.81;;;4.05;100.00
41573;BME280;27286;47.870;19.006;2022-12-10T00:49:42;97722.81;;;4.14;100.00
41573;BME280;27286;47.870;19.006;2022-12-10T00:52:07;97730.31;;;4.20;100.00
41573;BME280;27286;47.870;19.006;2022-12-10T00:54:33;97726.09;;;4.17;100.00
41573;BME280;27286;47.870;19.006;2022-12-10T00:56:58;97732.00;;;4.19;100.00
41573;BME280;27286;47.870;19.006;2022-12-10T00:59:24;97737.56;;;4.31;100.00
41573;BME280;27286;47.870;19.006;2022-12-10T01:01:49;97743.69;;;4.28;100.00
41573;BME280;27286;47.870;19.006;2022-12-10T01:04:17;97744.06;;;4.19;100.00
41573;BME280;27286;47.870;19.006;2022-12-10T01:06:44;97744.72;;;4.24;100.00
41573;BME280;27286;47.870;19.006;2022-12-10T01:09:12;97752.38;;;4.26;100.00
41573;BME280;27286;47.870;19.006;2022-12-10T01:11:39;97744.06;;;4.19;100.00
41573;BME280;27286;47.870;19.006;2022-12-10T01:14:10;97739.72;;;4.21;100.00
41573;BME280;27286;47.870;19.006;2022-12-10T01:16:36;97734.06;;;4.32;100.00
41573;BME280;27286;47.870;19.006;2022-12-10T01:19:02;97730.56;;;4.53;100.00
41573;BME280;27286;47.870;19.006;2022-12-10T01:21:28;97727.19;;;4.71;100.00
41573;BME280;27286;47.870;19.006;2022-12-10T01:23:55;97734.03;;;4.52;100.00
41573;BME280;27286;47.870;19.006;2022-12-10T01:26:26;97733.88;;;4.36;100.00
41573;BME280;27286;47.870;19.006;2022-12-10T01:28:53;97730.16;;;4.23;100.00
41573;BME280;27286;47.870;19.006;2022-12-10T01:31:23;97730.69;;;4.11;100.00
41573;BME280;27286;47.870;19.006;2022-12-10T01:33:50;97736.53;;;4.14;100.00
41573;BME280;27286;47.870;19.006;2022-12-10T01:36:21;97738.88;;;4.20;100.00
41573;BME280;27286;47.870;19.006;2022-12-10T01:38:47;97740.00;;;4.13;100.00
41573;BME280;27286;47.870;19.006;2022-12-10T01:41:30;97748.44;;;4.17;100.00
41573;BME280;27286;47.870;19.006;2022-12-10T01:44:00;97739.94;;;4.15;100.00
41573;BME280;27286;47.870;19.006;2022-12-10T01:46:33;97721.34;;;4.08;100.00
41573;BME280;27286;47.870;19.006;2022-12-10T01:49:02;97722.22;;;4.28;100.00
41573;BME280;27286;47.870;19.006;2022-12-10T01:51:31;97729.56;;;4.16;100.00
41573;BME280;27286;47.870;19.006;2022-12-10T01:53:57;97737.00;;;4.04;100.00
41573;BME280;27286;47.870;19.006;2022-12-10T01:56:23;97741.69;;;3.94;100.00
41573;BME280;27286;47.870;19.006;2022-12-10T01:58:51;97739.88;;;4.16;100.00
41573;BME280;27286;47.870;19.006;2022-12-10T02:06:45;97748.84;;;4.28;100.00
41573;BME280;27286;47.870;19.006;2022-12-10T02:09:15;97748.28;;;4.21;100.00
41573;BME280;27286;47.870;19.006;2022-12-10T02:17:51;97756.31;;;4.14;100.00
41573;BME280;27286;47.870;19.006;2022-12-10T02:23:07;97761.59;;;3.90;100.00
41573;BME280;27286;47.870;19.006;2022-12-10T02:25:45;97765.06;;;4.10;100.00
41573;BME280;27286;47.870;19.006;2022-12-10T02:30:45;97759.97;;;4.68;100.00
41573;BME280;27286;47.870;19.006;2022-12-10T02:33:13;97757.22;;;4.52;100.00
41573;BME280;27286;47.870;19.006;2022-12-10T02:35:40;97753.31;;;4.43;100.00
41573;BME280;27286;47.870;19.006;2022-12-10T02:38:17;97764.19;;;4.50;100.00
41573;BME280;27286;47.870;19.006;2022-12-10T02:40:47;97760.84;;;4.48;100.00
41573;BME280;27286;47.870;19.006;2022-12-10T02:43:15;97763.28;;;4.51;100.00
41573;BME280;27286;47.870;19.006;2022-12-10T02:45:42;97757.22;;;4.52;100.00
41573;BME280;27286;47.870;19.006;2022-12-10T02:48:09;97756.56;;;4.67;100.00
41573;BME280;27286;47.870;19.006;2022-12-10T02:50:35;97758.81;;;4.75;100.00
41573;BME280;27286;47.870;19.006;2022-12-10T02:53:01;97761.31;;;4.76;100.00
41573;BME280;27286;47.870;19.006;2022-12-10T02:55:30;97757.97;;;4.74;100.00
41573;BME280;27286;47.870;19.006;2022-12-10T03:00:32;97755.47;;;4.73;100.00
41573;BME280;27286;47.870;19.006;2022-12-10T03:08:46;97755.19;;;4.79;100.00
41573;BME280;27286;47.870;19.006;2022-12-10T03:11:13;97755.59;;;4.70;100.00
41573;BME280;27286;47.870;19.006;2022-12-10T03:14:00;97758.16;;;4.70;100.00
41573;BME280;27286;47.870;19.006;2022-12-10T03:16:29;97755.31;;;4.57;100.00
41573;BME280;27286;47.870;19.006;2022-12-10T03:19:00;97756.31;;;4.53;100.00
41573;BME280;27286;47.870;19.006;2022-12-10T03:21:28;97754.72;;;4.50;100.00
41573;BME280;27286;47.870;19.006;2022-12-10T03:23:55;97756.75;;;4.44;100.00
41573;BME280;27286;47.870;19.006;2022-12-10T03:26:22;97755.75;;;4.46;100.00
41573;BME280;27286;47.870;19.006;2022-12-10T03:28:56;97766.00;;;4.48;100.00
41573;BME280;27286;47.870;19.006;2022-12-10T03:31:23;97764.97;;;4.52;100.00
41573;BME280;27286;47.870;19.006;2022-12-10T03:33:49;97755.84;;;4.45;100.00
41573;BME280;27286;47.870;19.006;2022-12-10T03:36:17;97769.41;;;4.48;100.00
41573;BME280;27286;47.870;19.006;2022-12-10T03:38:43;97768.72;;;4.45;100.00
41573;BME280;27286;47.870;19.006;2022-12-10T03:41:09;97748.44;;;4.37;100.00
41573;BME280;27286;47.870;19.006;2022-12-10T03:43:34;97754.38;;;4.39;100.00
41573;BME280;27286;47.870;19.006;2022-12-10T03:46:00;97755.38;;;4.35;100.00
41573;BME280;27286;47.870;19.006;2022-12-10T03:48:25;97753.91;;;4.30;100.00
41573;BME280;27286;47.870;19.006;2022-12-10T03:50:51;97746.84;;;4.14;100.00
41573;BME280;27286;47.870;19.006;2022-12-10T03:53:16;97760.22;;;4.02;100.00
41573;BME280;27286;47.870;19.006;2022-12-10T03:55:42;97759.84;;;3.91;100.00
41573;BME280;27286;47.870;19.006;2022-12-10T03:58:07;97774.00;;;4.01;100.00
41573;BME280;27286;47.870;19.006;2022-12-10T04:00:33;97776.41;;;3.84;100.00
41573;BME280;27286;47.870;19.006;2022-12-10T04:02:58;97773.56;;;4.12;100.00
41573;BME280;27286;47.870;19.006;2022-12-10T04:05:23;97772.38;;;3.99;100.00
41573;BME280;27286;47.870;19.006;2022-12-10T04:07:49;97777.41;;;4.02;100.00
41573;BME280;27286;47.870;19.006;2022-12-10T04:10:14;97780.19;;;3.97;100.00
41573;BME280;27286;47.870;19.006;2022-12-10T04:12:40;97783.97;;;3.88;100.00
41573;BME280;27286;47.870;19.006;2022-12-10T04:15:06;97801.59;;;3.98;100.00
41573;BME280;27286;47.870;19.006;2022-12-10T04:17:50;97800.78;;;3.97;100.00
41573;BME280;27286;47.870;19.006;2022-12-10T04:20:15;97791.59;;;4.12;100.00
41573;BME280;27286;47.870;19.006;2022-12-10T04:22:59;97799.66;;;4.04;100.00
41573;BME280;27286;47.870;19.006;2022-12-10T04:25:43;97791.53;;;4.13;100.00
41573;BME280;27286;47.870;19.006;2022-12-10T04:28:27;97795.00;;;4.12;100.00
41573;BME280;27286;47.870;19.006;2022-12-10T04:30:53;97789.22;;;4.07;100.00
41573;BME280;27286;47.870;19.006;2022-12-10T04:33:18;97797.06;;;4.04;100.00
41573;BME280;27286;47.870;19.006;2022-12-10T04:35:44;97808.91;;;4.08;100.00
41573;BME280;27286;47.870;19.006;2022-12-10T04:38:09;97818.03;;;4.15;100.00
41573;BME280;27286;47.870;19.006;2022-12-10T04:40:34;97813.22;;;4.28;100.00
41573;BME280;27286;47.870;19.006;2022-12-10T04:43:00;97807.19;;;4.29;100.00
41573;BME280;27286;47.870;19.006;2022-12-10T04:45:25;97802.22;;;4.45;100.00
41573;BME280;27286;47.870;19.006;2022-12-10T04:47:51;97809.06;;;4.26;100.00
41573;BME280;27286;47.870;19.006;2022-12-10T04:50:16;97810.91;;;4.22;100.00
41573;BME280;27286;47.870;19.006;2022-12-10T04:52:41;97810.31;;;4.15;100.00
41573;BME280;27286;47.870;19.006;2022-12-10T04:55:07;97816.84;;;4.24;100.00
41573;BME280;27286;47.870;19.006;2022-12-10T04:57:33;97814.56;;;4.16;100.00
41573;BME280;27286;47.870;19.006;2022-12-10T04:59:58;97819.91;;;4.12;100.00
41573;BME280;27286;47.870;19.006;2022-12-10T05:02:24;97821.47;;;4.16;100.00
41573;BME280;27286;47.870;19.006;2022-12-10T05:04:49;97826.03;;;4.09;100.00
41573;BME280;27286;47.870;19.006;2022-12-10T05:07:14;97818.84;;;4.38;100.00
41573;BME280;27286;47.870;19.006;2022-12-10T05:09:40;97824.44;;;4.27;100.00
41573;BME280;27286;47.870;19.006;2022-12-10T05:12:05;97821.66;;;4.32;100.00
41573;BME280;27286;47.870;19.006;2022-12-10T05:14:31;97827.06;;;4.26;100.00
41573;BME280;27286;47.870;19.006;2022-12-10T05:16:56;97827.00;;;4.27;100.00
41573;BME280;27286;47.870;19.006;2022-12-10T05:19:22;97824.50;;;4.05;100.00
41573;BME280;27286;47.870;19.006;2022-12-10T05:21:49;97825.91;;;4.12;100.00
41573;BME280;27286;47.870;19.006;2022-12-10T05:24:33;97827.41;;;4.38;100.00
41573;BME280;27286;47.870;19.006;2022-12-10T05:26:58;97823.66;;;4.45;100.00
41573;BME280;27286;47.870;19.006;2022-12-10T05:29:24;97830.16;;;4.34;100.00
41573;BME280;27286;47.870;19.006;2022-12-10T05:31:50;97813.38;;;4.25;100.00
41573;BME280;27286;47.870;19.006;2022-12-10T05:34:15;97822.97;;;4.42;100.00
41573;BME280;27286;47.870;19.006;2022-12-10T05:36:41;97830.94;;;4.36;100.00
41573;BME280;27286;47.870;19.006;2022-12-10T05:39:07;97840.28;;;4.38;100.00
41573;BME280;27286;47.870;19.006;2022-12-10T05:41:35;97841.56;;;4.28;100.00
41573;BME280;27286;47.870;19.006;2022-12-10T05:44:02;97840.94;;;4.23;100.00
41573;BME280;27286;47.870;19.006;2022-12-10T05:46:29;97841.41;;;4.11;100.00
41573;BME280;27286;47.870;19.006;2022-12-10T05:48:55;97843.44;;;4.03;100.00
41573;BME280;27286;47.870;19.006;2022-12-10T05:51:25;97846.09;;;4.01;100.00
41573;BME280;27286;47.870;19.006;2022-12-10T05:53:52;97841.84;;;4.00;100.00
41573;BME280;27286;47.870;19.006;2022-12-10T05:56:20;97843.13;;;3.90;100.00
41573;BME280;27286;47.870;19.006;2022-12-10T05:58:49;97843.91;;;3.92;100.00
41573;BME280;27286;47.870;19.006;2022-12-10T06:01:18;97847.25;;;3.94;100.00
41573;BME280;27286;47.870;19.006;2022-12-10T06:03:44;97842.38;;;4.08;100.00
41573;BME280;27286;47.870;19.006;2022-12-10T06:06:10;97834.53;;;4.11;100.00
41573;BME280;27286;47.870;19.006;2022-12-10T06:08:36;97838.72;;;4.14;100.00
41573;BME280;27286;47.870;19.006;2022-12-10T06:11:06;97850.81;;;4.12;100.00
41573;BME280;27286;47.870;19.006;2022-12-10T06:13:32;97860.19;;;3.92;100.00
41573;BME280;27286;47.870;19.006;2022-12-10T06:15:57;97852.88;;;4.04;100.00
41573;BME280;27286;47.870;19.006;2022-12-10T06:18:23;97851.84;;;4.08;100.00
41573;BME280;27286;47.870;19.006;2022-12-10T06:20:49;97864.94;;;4.02;100.00
41573;BME280;27286;47.870;19.006;2022-12-10T06:23:14;97866.88;;;3.97;100.00
41573;BME280;27286;47.870;19.006;2022-12-10T06:25:40;97872.31;;;4.11;100.00
41573;BME280;27286;47.870;19.006;2022-12-10T06:28:06;97879.56;;;4.01;100.00
41573;BME280;27286;47.870;19.006;2022-12-10T06:30:32;97874.34;;;4.03;100.00
41573;BME280;27286;47.870;19.006;2022-12-10T06:32:58;97877.38;;;3.92;100.00
41573;BME280;27286;47.870;19.006;2022-12-10T06:35:24;97890.13;;;3.95;100.00
41573;BME280;27286;47.870;19.006;2022-12-10T06:37:50;97898.50;;;4.00;100.00
41573;BME280;27286;47.870;19.006;2022-12-10T06:40:16;97898.41;;;4.02;100.00
41573;BME280;27286;47.870;19.006;2022-12-10T06:42:42;97908.97;;;3.96;100.00
41573;BME280;27286;47.870;19.006;2022-12-10T06:45:07;97917.41;;;3.99;100.00
41573;BME280;27286;47.870;19.006;2022-12-10T06:47:33;97907.94;;;4.00;100.00
41573;BME280;27286;47.870;19.006;2022-12-10T06:49:58;97915.19;;;4.12;100.00
41573;BME280;27286;47.870;19.006;2022-12-10T06:52:24;97921.66;;;4.00;100.00
41573;BME280;27286;47.870;19.006;2022-12-10T06:54:50;97930.88;;;3.84;100.00
41573;BME280;27286;47.870;19.006;2022-12-10T06:57:15;97916.31;;;3.83;100.00
41573;BME280;27286;47.870;19.006;2022-12-10T06:59:41;97914.91;;;3.76;100.00
41573;BME280;27286;47.870;19.006;2022-12-10T07:02:08;97921.16;;;3.69;100.00
41573;BME280;27286;47.870;19.006;2022-12-10T07:04:34;97916.31;;;3.61;100.00
41573;BME280;27286;47.870;19.006;2022-12-10T07:06:59;97917.38;;;3.55;100.00
41573;BME280;27286;47.870;19.006;2022-12-10T07:09:25;97909.50;;;3.37;100.00
41573;BME280;27286;47.870;19.006;2022-12-10T07:11:50;97911.88;;;3.65;100.00
41573;BME280;27286;47.870;19.006;2022-12-10T07:14:17;97913.41;;;3.47;100.00
41573;BME280;27286;47.870;19.006;2022-12-10T07:16:42;97909.38;;;3.40;100.00
41573;BME280;27286;47.870;19.006;2022-12-10T07:19:09;97914.78;;;3.32;100.00
41573;BME280;27286;47.870;19.006;2022-12-10T07:21:36;97919.28;;;3.27;100.00
41573;BME280;27286;47.870;19.006;2022-12-10T07:24:05;97927.44;;;3.38;100.00
41573;BME280;27286;47.870;19.006;2022-12-10T07:26:34;97915.28;;;3.18;100.00
41573;BME280;27286;47.870;19.006;2022-12-10T07:29:01;97917.84;;;3.20;100.00
41573;BME280;27286;47.870;19.006;2022-12-10T07:31:27;97915.97;;;3.23;100.00
41573;BME280;27286;47.870;19.006;2022-12-10T07:33:53;97909.34;;;3.41;100.00
41573;BME280;27286;47.870;19.006;2022-12-10T07:36:21;97901.16;;;3.53;100.00
41573;BME280;27286;47.870;19.006;2022-12-10T07:38:53;97895.50;;;3.44;100.00
41573;BME280;27286;47.870;19.006;2022-12-10T07:41:20;97877.75;;;3.38;100.00
41573;BME280;27286;47.870;19.006;2022-12-10T07:43:46;97872.41;;;3.42;100.00
41573;BME280;27286;47.870;19.006;2022-12-10T07:46:18;97870.44;;;3.49;100.00
41573;BME280;27286;47.870;19.006;2022-12-10T07:48:45;97889.59;;;3.42;100.00
41573;BME280;27286;47.870;19.006;2022-12-10T07:51:12;97882.91;;;3.59;100.00
41573;BME280;27286;47.870;19.006;2022-12-10T07:53:37;97875.81;;;3.43;100.00
41573;BME280;27286;47.870;19.006;2022-12-10T07:56:03;97865.81;;;3.58;100.00
41573;BME280;27286;47.870;19.006;2022-12-10T07:58:29;97871.13;;;3.54;100.00
41573;BME280;27286;47.870;19.006;2022-12-10T08:00:55;97872.88;;;3.75;100.00
41573;BME280;27286;47.870;19.006;2022-12-10T08:03:20;97895.63;;;4.08;100.00
41573;BME280;27286;47.870;19.006;2022-12-10T08:05:46;97900.41;;;3.73;100.00
41573;BME280;27286;47.870;19.006;2022-12-10T08:08:11;97906.50;;;4.14;100.00
41573;BME280;27286;47.870;19.006;2022-12-10T08:10:38;97909.69;;;3.77;100.00
41573;BME280;27286;47.870;19.006;2022-12-10T08:13:04;97908.41;;;3.66;100.00
41573;BME280;27286;47.870;19.006;2022-12-10T08:15:30;97891.16;;;3.68;100.00
41573;BME280;27286;47.870;19.006;2022-12-10T08:17:56;97902.03;;;3.76;100.00
41573;BME280;27286;47.870;19.006;2022-12-10T08:20:22;97887.00;;;3.87;100.00
41573;BME280;27286;47.870;19.006;2022-12-10T08:22:48;97875.50;;;3.96;100.00
41573;BME280;27286;47.870;19.006;2022-12-10T08:25:13;97864.00;;;4.04;100.00
41573;BME280;27286;47.870;19.006;2022-12-10T08:27:39;97868.50;;;3.99;100.00
41573;BME280;27286;47.870;19.006;2022-12-10T08:30:05;97855.28;;;3.86;100.00
41573;BME280;27286;47.870;19.006;2022-12-10T08:32:30;97860.59;;;4.04;100.00
41573;BME280;27286;47.870;19.006;2022-12-10T08:34:56;97862.63;;;3.96;100.00
41573;BME280;27286;47.870;19.006;2022-12-10T08:37:22;97859.47;;;3.89;100.00
41573;BME280;27286;47.870;19.006;2022-12-10T08:39:47;97869.88;;;4.08;100.00
41573;BME280;27286;47.870;19.006;2022-12-10T08:42:13;97870.66;;;3.88;100.00
41573;BME280;27286;47.870;19.006;2022-12-10T08:44:38;97874.91;;;3.89;100.00
41573;BME280;27286;47.870;19.006;2022-12-10T08:47:04;97877.94;;;4.20;100.00
41573;BME280;27286;47.870;19.006;2022-12-10T08:49:29;97887.78;;;4.11;100.00
41573;BME280;27286;47.870;19.006;2022-12-10T08:51:55;97888.75;;;4.08;100.00
41573;BME280;27286;47.870;19.006;2022-12-10T08:54:20;97882.06;;;4.03;100.00
41573;BME280;27286;47.870;19.006;2022-12-10T08:56:46;97882.25;;;3.98;100.00
41573;BME280;27286;47.870;19.006;2022-12-10T08:59:11;97886.69;;;4.16;100.00
41573;BME280;27286;47.870;19.006;2022-12-10T09:01:36;97892.06;;;4.32;100.00
41573;BME280;27286;47.870;19.006;2022-12-10T09:04:02;97890.78;;;4.63;99.95
41573;BME280;27286;47.870;19.006;2022-12-10T09:06:28;97887.66;;;4.56;97.92
41573;BME280;27286;47.870;19.006;2022-12-10T09:08:54;97909.69;;;4.21;100.00
41573;BME280;27286;47.870;19.006;2022-12-10T09:11:23;97920.94;;;4.40;100.00
41573;BME280;27286;47.870;19.006;2022-12-10T09:13:49;97910.19;;;4.51;100.00
41573;BME280;27286;47.870;19.006;2022-12-10T09:16:15;97918.78;;;4.30;100.00
41573;BME280;27286;47.870;19.006;2022-12-10T09:18:40;97921.50;;;4.27;100.00
41573;BME280;27286;47.870;19.006;2022-12-10T09:21:07;97918.59;;;4.34;100.00
41573;BME280;27286;47.870;19.006;2022-12-10T09:23:33;97924.84;;;4.29;100.00
41573;BME280;27286;47.870;19.006;2022-12-10T09:25:59;97921.75;;;4.20;100.00
41573;BME280;27286;47.870;19.006;2022-12-10T09:28:24;97915.25;;;4.10;100.00
41573;BME280;27286;47.870;19.006;2022-12-10T09:31:00;97918.88;;;4.06;100.00
41573;BME280;27286;47.870;19.006;2022-12-10T09:33:26;97921.59;;;4.02;100.00
41573;BME280;27286;47.870;19.006;2022-12-10T09:35:52;97917.66;;;3.93;100.00
41573;BME280;27286;47.870;19.006;2022-12-10T09:38:17;97911.72;;;3.91;100.00
41573;BME280;27286;47.870;19.006;2022-12-10T09:52:02;97901.13;;;3.77;100.00
41573;BME280;27286;47.870;19.006;2022-12-10T09:54:38;97903.88;;;3.72;100.00
41573;BME280;27286;47.870;19.006;2022-12-10T09:57:07;97893.47;;;3.75;100.00
41573;BME280;27286;47.870;19.006;2022-12-10T09:59:42;97878.84;;;3.76;100.00
41573;BME280;27286;47.870;19.006;2022-12-10T10:02:22;97886.41;;;3.80;100.00
41573;BME280;27286;47.870;19.006;2022-12-10T10:04:49;97882.97;;;3.80;100.00
41573;BME280;27286;47.870;19.006;2022-12-10T10:07:26;97878.84;;;3.98;100.00
41573;BME280;27286;47.870;19.006;2022-12-10T10:09:57;97883.69;;;3.83;100.00
41573;BME280;27286;47.870;19.006;2022-12-10T10:12:27;97879.97;;;3.69;100.00
41573;BME280;27286;47.870;19.006;2022-12-10T10:14:53;97879.22;;;4.10;100.00
41573;BME280;27286;47.870;19.006;2022-12-10T10:17:33;97883.47;;;3.89;100.00
41573;BME280;27286;47.870;19.006;2022-12-10T10:20:00;97883.81;;;3.80;100.00
41573;BME280;27286;47.870;19.006;2022-12-10T10:22:26;97877.66;;;3.62;100.00
41573;BME280;27286;47.870;19.006;2022-12-10T10:24:52;97874.88;;;3.67;100.00
41573;BME280;27286;47.870;19.006;2022-12-10T10:27:23;97875.72;;;3.68;100.00
41573;BME280;27286;47.870;19.006;2022-12-10T10:29:53;97869.69;;;3.69;100.00
41573;BME280;27286;47.870;19.006;2022-12-10T10:35:03;97868.66;;;3.51;100.00
41573;BME280;27286;47.870;19.006;2022-12-10T10:37:38;97883.03;;;3.56;100.00
41573;BME280;27286;47.870;19.006;2022-12-10T10:40:04;97875.25;;;3.58;100.00
41573;BME280;27286;47.870;19.006;2022-12-10T10:42:37;97868.38;;;3.58;100.00
41573;BME280;27286;47.870;19.006;2022-12-10T10:45:06;97862.22;;;3.62;100.00
41573;BME280;27286;47.870;19.006;2022-12-10T10:47:34;97869.25;;;4.01;100.00
41573;BME280;27286;47.870;19.006;2022-12-10T10:50:04;97860.91;;;3.74;100.00
41573;BME280;27286;47.870;19.006;2022-12-10T10:52:36;97865.38;;;3.69;100.00
41573;BME280;27286;47.870;19.006;2022-12-10T10:55:01;97867.06;;;3.70;100.00
41573;BME280;27286;47.870;19.006;2022-12-10T10:57:36;97855.13;;;3.68;100.00
41573;BME280;27286;47.870;19.006;2022-12-10T11:02:40;97844.00;;;3.67;100.00
41573;BME280;27286;47.870;19.006;2022-12-10T11:05:28;97849.59;;;3.56;100.00
41573;BME280;27286;47.870;19.006;2022-12-10T11:08:21;97848.13;;;3.49;100.00
41573;BME280;27286;47.870;19.006;2022-12-10T11:10:55;97852.56;;;3.68;100.00
41573;BME280;27286;47.870;19.006;2022-12-10T11:13:25;97844.91;;;3.66;100.00
41573;BME280;27286;47.870;19.006;2022-12-10T11:16:21;97844.50;;;3.77;100.00
41573;BME280;27286;47.870;19.006;2022-12-10T11:19:01;97845.69;;;3.46;100.00
41573;BME280;27286;47.870;19.006;2022-12-10T11:21:33;97852.75;;;3.85;100.00
41573;BME280;27286;47.870;19.006;2022-12-10T11:24:00;97863.94;;;3.62;100.00
41573;BME280;27286;47.870;19.006;2022-12-10T11:40:25;97846.25;;;3.54;100.00
41573;BME280;27286;47.870;19.006;2022-12-10T11:50:47;97825.09;;;3.46;100.00
41573;BME280;27286;47.870;19.006;2022-12-10T11:56:07;97817.56;;;3.42;100.00
41573;BME280;27286;47.870;19.006;2022-12-10T11:58:55;97798.84;;;3.38;100.00
41573;BME280;27286;47.870;19.006;2022-12-10T12:04:28;97802.78;;;3.47;100.00
41573;BME280;27286;47.870;19.006;2022-12-10T12:07:04;97805.00;;;3.56;100.00
41573;BME280;27286;47.870;19.006;2022-12-10T12:15:01;97783.53;;;3.57;100.00
41573;BME280;27286;47.870;19.006;2022-12-10T12:17:37;97783.59;;;3.55;100.00
41573;BME280;27286;47.870;19.006;2022-12-10T12:22:49;97782.13;;;3.48;100.00
41573;BME280;27286;47.870;19.006;2022-12-10T12:25:26;97784.31;;;3.59;100.00
41573;BME280;27286;47.870;19.006;2022-12-10T12:27:58;97784.56;;;3.53;100.00
41573;BME280;27286;47.870;19.006;2022-12-10T12:30:26;97786.88;;;3.59;100.00
41573;BME280;27286;47.870;19.006;2022-12-10T12:33:01;97778.53;;;3.52;100.00
41573;BME280;27286;47.870;19.006;2022-12-10T12:38:03;97782.81;;;3.53;100.00
41573;BME280;27286;47.870;19.006;2022-12-10T12:40:44;97778.19;;;3.40;100.00
41573;BME280;27286;47.870;19.006;2022-12-10T12:43:31;97767.91;;;3.40;100.00
41573;BME280;27286;47.870;19.006;2022-12-10T12:45:59;97766.25;;;3.39;100.00
41573;BME280;27286;47.870;19.006;2022-12-10T12:51:08;97759.53;;;3.56;100.00
41573;BME280;27286;47.870;19.006;2022-12-10T12:53:34;97765.28;;;3.41;100.00
41573;BME280;27286;47.870;19.006;2022-12-10T12:58:42;97772.75;;;3.47;100.00
41573;BME280;27286;47.870;19.006;2022-12-10T13:01:14;97777.88;;;3.47;100.00
41573;BME280;27286;47.870;19.006;2022-12-10T13:03:43;97767.59;;;3.47;100.00
41573;BME280;27286;47.870;19.006;2022-12-10T13:06:27;97771.72;;;3.51;100.00
41573;BME280;27286;47.870;19.006;2022-12-10T13:09:15;97771.44;;;3.59;100.00
41573;BME280;27286;47.870;19.006;2022-12-10T13:12:16;97769.81;;;3.56;100.00
41573;BME280;27286;47.870;19.006;2022-12-10T13:19:28;97762.50;;;3.46;100.00
41573;BME280;27286;47.870;19.006;2022-12-10T13:32:16;97777.28;;;3.62;100.00
41573;BME280;27286;47.870;19.006;2022-12-10T13:34:43;97769.34;;;3.47;100.00
41573;BME280;27286;47.870;19.006;2022-12-10T13:37:31;97769.28;;;3.48;100.00
41573;BME280;27286;47.870;19.006;2022-12-10T13:43:43;97771.72;;;3.51;100.00
41573;BME280;27286;47.870;19.006;2022-12-10T13:49:18;97779.16;;;3.59;100.00
41573;BME280;27286;47.870;19.006;2022-12-10T13:52:05;97766.41;;;3.56;100.00
41573;BME280;27286;47.870;19.006;2022-12-10T13:54:39;97771.69;;;3.53;100.00
41573;BME280;27286;47.870;19.006;2022-12-10T13:59:43;97767.38;;;3.53;100.00
41573;BME280;27286;47.870;19.006;2022-12-10T14:07:37;97777.47;;;3.58;100.00
41573;BME280;27286;47.870;19.006;2022-12-10T14:10:13;97774.84;;;3.59;100.00
41573;BME280;27286;47.870;19.006;2022-12-10T14:12:41;97775.75;;;3.58;100.00
41573;BME280;27286;47.870;19.006;2022-12-10T14:15:15;97777.41;;;3.59;100.00
41573;BME280;27286;47.870;19.006;2022-12-10T14:17:43;97778.19;;;3.61;100.00
41573;BME280;27286;47.870;19.006;2022-12-10T14:20:17;97774.59;;;3.66;100.00
41573;BME280;27286;47.870;19.006;2022-12-10T14:22:48;97772.00;;;3.66;100.00
41573;BME280;27286;47.870;19.006;2022-12-10T14:25:17;97769.50;;;3.64;100.00
41573;BME280;27286;47.870;19.006;2022-12-10T14:27:46;97767.00;;;3.62;100.00
41573;BME280;27286;47.870;19.006;2022-12-10T14:30:18;97764.22;;;3.67;100.00
41573;BME280;27286;47.870;19.006;2022-12-10T14:32:45;97781.66;;;3.60;100.00
41573;BME280;27286;47.870;19.006;2022-12-10T14:35:23;97774.72;;;3.62;100.00
41573;BME280;27286;47.870;19.006;2022-12-10T14:37:50;97772.28;;;3.59;100.00
41573;BME280;27286;47.870;19.006;2022-12-10T14:40:41;97774.06;;;3.57;100.00
41573;BME280;27286;47.870;19.006;2022-12-10T14:46:00;97781.78;;;3.57;100.00
41573;BME280;27286;47.870;19.006;2022-12-10T14:48:27;97774.97;;;3.56;100.00
41573;BME280;27286;47.870;19.006;2022-12-10T14:50:52;97773.16;;;3.58;100.00
41573;BME280;27286;47.870;19.006;2022-12-10T14:53:23;97767.47;;;3.72;100.00
41573;BME280;27286;47.870;19.006;2022-12-10T14:55:51;97773.78;;;3.85;100.00